Pays
Station

 

Conditions  météo  pour  El Salvador Intl. Airport/Comalapa  -  El Salvador    El Salvador

  
28 °C
    
 
 

METAR pour El Salvador Intl. Airport/Comalapa :

MSLP 251250Z VRB02KT 9999 FEW020 FEW033TCU 28/23 Q1009 A2981 NOSIG RMK TCU SSW

 

Voici le bulletin pour El Salvador Intl. Airport/Comalapa - El Salvador.
 
Le bulletin a été fait il y a 22 minutes, à 12:50 UTC .
Le vent soufflait à la vitesse de 1.0 mètres par seconde de direction variable.
 
La température était de 28 °C, avec un point de rosée à 23 °C.
La température ressentie était de 31 °C.
 
La pression atmosphérique était de 1009 hPa.
L'humidité relative était de 74.3%.
 
Il y avait 1 à 2/8ème de nébulosité à une hauteur de 610 mètres et 1 à 2/8ème cumulus congestus de nébulosité à une hauteur de 1006 mètres.
 
La visibilité globale était de supérieure à 10 kilomètres.
 

 
 
 

Pays :   A   B   C   D   E   F   G   H   I   J   K   L   M   N   O   P   Q   R   S   T   U   V   W   Y   Z

 

Partenaires :  Info Météo avec Met'info
Météo Marine avec MeteoMarine.net
Infos Site  |  Infos Légales  |  Crédits  |  Confidentialité
Contactez-nous  |  Ajouter aux favoris
© 2013-2020 METAR - Tous droits réservés